sensor_id;sensor_type;location;lat;lon;timestamp;P1;durP1;ratioP1;P2;durP2;ratioP2
44774;SDS011;31340;51.402;0.016;2023-05-24T00:00:26;12.80;;;2.53;;
44774;SDS011;31340;51.402;0.016;2023-05-24T00:02:54;11.07;;;2.75;;
44774;SDS011;31340;51.402;0.016;2023-05-24T00:05:23;8.45;;;2.45;;
44774;SDS011;31340;51.402;0.016;2023-05-24T00:07:51;11.02;;;2.60;;
44774;SDS011;31340;51.402;0.016;2023-05-24T00:10:18;9.63;;;2.70;;
44774;SDS011;31340;51.402;0.016;2023-05-24T00:12:46;9.50;;;2.45;;
44774;SDS011;31340;51.402;0.016;2023-05-24T00:15:14;7.85;;;2.47;;
44774;SDS011;31340;51.402;0.016;2023-05-24T00:17:41;10.10;;;2.50;;
44774;SDS011;31340;51.402;0.016;2023-05-24T00:20:09;16.50;;;4.13;;
44774;SDS011;31340;51.402;0.016;2023-05-24T00:22:38;11.00;;;2.35;;
44774;SDS011;31340;51.402;0.016;2023-05-24T00:25:07;11.82;;;2.33;;
44774;SDS011;31340;51.402;0.016;2023-05-24T00:27:35;11.43;;;2.58;;
44774;SDS011;31340;51.402;0.016;2023-05-24T00:30:04;13.52;;;2.67;;
44774;SDS011;31340;51.402;0.016;2023-05-24T00:32:32;11.50;;;2.38;;
44774;SDS011;31340;51.402;0.016;2023-05-24T00:35:00;7.07;;;2.08;;
44774;SDS011;31340;51.402;0.016;2023-05-24T00:37:28;11.85;;;2.75;;
44774;SDS011;31340;51.402;0.016;2023-05-24T00:39:55;9.32;;;3.28;;
44774;SDS011;31340;51.402;0.016;2023-05-24T00:42:23;10.85;;;3.13;;
44774;SDS011;31340;51.402;0.016;2023-05-24T00:44:50;6.32;;;2.25;;
44774;SDS011;31340;51.402;0.016;2023-05-24T00:47:18;13.32;;;2.90;;
44774;SDS011;31340;51.402;0.016;2023-05-24T00:49:45;8.60;;;3.25;;
44774;SDS011;31340;51.402;0.016;2023-05-24T00:52:13;9.18;;;2.80;;
44774;SDS011;31340;51.402;0.016;2023-05-24T00:54:41;13.15;;;3.13;;
44774;SDS011;31340;51.402;0.016;2023-05-24T00:57:10;7.18;;;1.80;;
44774;SDS011;31340;51.402;0.016;2023-05-24T00:59:39;9.30;;;2.35;;
44774;SDS011;31340;51.402;0.016;2023-05-24T01:02:07;7.35;;;2.03;;
44774;SDS011;31340;51.402;0.016;2023-05-24T01:04:35;9.00;;;2.47;;
44774;SDS011;31340;51.402;0.016;2023-05-24T01:10:02;11.50;;;2.78;;
44774;SDS011;31340;51.402;0.016;2023-05-24T01:18:32;9.48;;;2.53;;
44774;SDS011;31340;51.402;0.016;2023-05-24T01:21:15;8.13;;;2.00;;
44774;SDS011;31340;51.402;0.016;2023-05-24T01:29:34;10.05;;;2.42;;
44774;SDS011;31340;51.402;0.016;2023-05-24T01:32:03;7.82;;;2.20;;
44774;SDS011;31340;51.402;0.016;2023-05-24T01:34:31;14.05;;;3.35;;
44774;SDS011;31340;51.402;0.016;2023-05-24T01:36:59;7.25;;;1.90;;
44774;SDS011;31340;51.402;0.016;2023-05-24T01:39:27;4.60;;;2.17;;
44774;SDS011;31340;51.402;0.016;2023-05-24T01:42:05;9.18;;;2.25;;
44774;SDS011;31340;51.402;0.016;2023-05-24T01:44:46;8.30;;;2.15;;
44774;SDS011;31340;51.402;0.016;2023-05-24T01:47:41;6.72;;;2.33;;
44774;SDS011;31340;51.402;0.016;2023-05-24T01:50:28;9.98;;;2.40;;
44774;SDS011;31340;51.402;0.016;2023-05-24T01:53:01;12.80;;;3.25;;
44774;SDS011;31340;51.402;0.016;2023-05-24T01:55:31;8.15;;;2.20;;
44774;SDS011;31340;51.402;0.016;2023-05-24T01:58:04;6.35;;;2.10;;
44774;SDS011;31340;51.402;0.016;2023-05-24T02:00:33;8.50;;;2.20;;
44774;SDS011;31340;51.402;0.016;2023-05-24T02:03:01;12.75;;;2.45;;
44774;SDS011;31340;51.402;0.016;2023-05-24T02:05:32;8.80;;;2.05;;
44774;SDS011;31340;51.402;0.016;2023-05-24T02:08:04;10.55;;;2.30;;
44774;SDS011;31340;51.402;0.016;2023-05-24T02:10:32;7.22;;;2.03;;
44774;SDS011;31340;51.402;0.016;2023-05-24T02:13:00;9.25;;;2.22;;
44774;SDS011;31340;51.402;0.016;2023-05-24T02:15:27;7.28;;;2.00;;
44774;SDS011;31340;51.402;0.016;2023-05-24T02:17:57;10.65;;;2.10;;
44774;SDS011;31340;51.402;0.016;2023-05-24T02:20:28;7.65;;;2.42;;
44774;SDS011;31340;51.402;0.016;2023-05-24T02:22:57;7.30;;;2.08;;
44774;SDS011;31340;51.402;0.016;2023-05-24T02:25:25;7.30;;;1.98;;
44774;SDS011;31340;51.402;0.016;2023-05-24T02:27:53;6.88;;;2.33;;
44774;SDS011;31340;51.402;0.016;2023-05-24T02:30:21;5.10;;;1.90;;
44774;SDS011;31340;51.402;0.016;2023-05-24T02:32:49;7.30;;;1.92;;
44774;SDS011;31340;51.402;0.016;2023-05-24T02:35:16;7.55;;;2.63;;
44774;SDS011;31340;51.402;0.016;2023-05-24T02:37:44;7.93;;;2.08;;
44774;SDS011;31340;51.402;0.016;2023-05-24T02:40:12;9.23;;;2.40;;
44774;SDS011;31340;51.402;0.016;2023-05-24T02:42:40;12.82;;;2.33;;
44774;SDS011;31340;51.402;0.016;2023-05-24T02:45:08;11.52;;;2.38;;
44774;SDS011;31340;51.402;0.016;2023-05-24T02:47:36;8.82;;;1.95;;
44774;SDS011;31340;51.402;0.016;2023-05-24T02:50:04;6.05;;;2.08;;
44774;SDS011;31340;51.402;0.016;2023-05-24T02:52:32;7.95;;;2.22;;
44774;SDS011;31340;51.402;0.016;2023-05-24T02:55:00;11.32;;;2.33;;
44774;SDS011;31340;51.402;0.016;2023-05-24T02:57:28;9.27;;;2.58;;
44774;SDS011;31340;51.402;0.016;2023-05-24T02:59:55;7.30;;;2.25;;
44774;SDS011;31340;51.402;0.016;2023-05-24T03:02:24;11.45;;;2.30;;
44774;SDS011;31340;51.402;0.016;2023-05-24T03:04:54;9.60;;;1.85;;
44774;SDS011;31340;51.402;0.016;2023-05-24T03:07:22;8.45;;;3.08;;
44774;SDS011;31340;51.402;0.016;2023-05-24T03:09:50;7.88;;;2.17;;
44774;SDS011;31340;51.402;0.016;2023-05-24T03:12:17;10.15;;;2.00;;
44774;SDS011;31340;51.402;0.016;2023-05-24T03:14:45;10.20;;;1.88;;
44774;SDS011;31340;51.402;0.016;2023-05-24T03:17:12;12.25;;;2.40;;
44774;SDS011;31340;51.402;0.016;2023-05-24T03:19:40;12.82;;;2.20;;
44774;SDS011;31340;51.402;0.016;2023-05-24T03:22:08;8.77;;;2.00;;
44774;SDS011;31340;51.402;0.016;2023-05-24T03:24:35;5.03;;;2.33;;
44774;SDS011;31340;51.402;0.016;2023-05-24T03:27:05;8.02;;;2.40;;
44774;SDS011;31340;51.402;0.016;2023-05-24T03:29:32;9.60;;;3.25;;
44774;SDS011;31340;51.402;0.016;2023-05-24T03:32:00;8.52;;;2.67;;
44774;SDS011;31340;51.402;0.016;2023-05-24T03:34:28;8.68;;;2.40;;
44774;SDS011;31340;51.402;0.016;2023-05-24T03:36:56;10.25;;;3.05;;
44774;SDS011;31340;51.402;0.016;2023-05-24T03:39:23;10.80;;;3.17;;
44774;SDS011;31340;51.402;0.016;2023-05-24T03:42:02;8.77;;;2.35;;
44774;SDS011;31340;51.402;0.016;2023-05-24T03:44:30;10.93;;;2.28;;
44774;SDS011;31340;51.402;0.016;2023-05-24T03:46:58;8.05;;;2.50;;
44774;SDS011;31340;51.402;0.016;2023-05-24T03:49:26;11.10;;;2.88;;
44774;SDS011;31340;51.402;0.016;2023-05-24T03:51:55;10.32;;;2.42;;
44774;SDS011;31340;51.402;0.016;2023-05-24T03:54:22;7.95;;;2.50;;
44774;SDS011;31340;51.402;0.016;2023-05-24T03:56:50;6.57;;;2.28;;
44774;SDS011;31340;51.402;0.016;2023-05-24T03:59:19;5.93;;;2.38;;
44774;SDS011;31340;51.402;0.016;2023-05-24T04:01:48;8.63;;;2.80;;
44774;SDS011;31340;51.402;0.016;2023-05-24T04:04:16;10.73;;;2.65;;
44774;SDS011;31340;51.402;0.016;2023-05-24T04:06:44;9.63;;;2.60;;
44774;SDS011;31340;51.402;0.016;2023-05-24T04:09:12;6.43;;;2.28;;
44774;SDS011;31340;51.402;0.016;2023-05-24T04:11:40;8.38;;;2.80;;
44774;SDS011;31340;51.402;0.016;2023-05-24T04:14:10;5.30;;;2.33;;
44774;SDS011;31340;51.402;0.016;2023-05-24T04:16:38;8.70;;;2.63;;
44774;SDS011;31340;51.402;0.016;2023-05-24T04:19:07;11.18;;;2.97;;
44774;SDS011;31340;51.402;0.016;2023-05-24T04:21:36;12.15;;;2.72;;
44774;SDS011;31340;51.402;0.016;2023-05-24T04:24:05;5.57;;;2.40;;
44774;SDS011;31340;51.402;0.016;2023-05-24T04:26:32;8.82;;;2.75;;
44774;SDS011;31340;51.402;0.016;2023-05-24T04:29:00;10.88;;;3.03;;
44774;SDS011;31340;51.402;0.016;2023-05-24T04:31:29;9.05;;;3.08;;
44774;SDS011;31340;51.402;0.016;2023-05-24T04:33:59;7.32;;;2.75;;
44774;SDS011;31340;51.402;0.016;2023-05-24T04:36:27;9.07;;;3.00;;
44774;SDS011;31340;51.402;0.016;2023-05-24T04:38:55;8.68;;;2.90;;
44774;SDS011;31340;51.402;0.016;2023-05-24T04:41:23;15.98;;;3.78;;
44774;SDS011;31340;51.402;0.016;2023-05-24T04:43:51;10.30;;;3.00;;
44774;SDS011;31340;51.402;0.016;2023-05-24T04:46:19;5.07;;;2.72;;
44774;SDS011;31340;51.402;0.016;2023-05-24T04:48:47;8.35;;;2.75;;
44774;SDS011;31340;51.402;0.016;2023-05-24T04:51:14;12.07;;;2.90;;
44774;SDS011;31340;51.402;0.016;2023-05-24T04:53:42;10.23;;;3.00;;
44774;SDS011;31340;51.402;0.016;2023-05-24T04:56:09;10.55;;;3.40;;
44774;SDS011;31340;51.402;0.016;2023-05-24T04:58:40;10.43;;;3.70;;
44774;SDS011;31340;51.402;0.016;2023-05-24T05:01:08;11.88;;;3.13;;
44774;SDS011;31340;51.402;0.016;2023-05-24T05:03:36;11.48;;;3.58;;
44774;SDS011;31340;51.402;0.016;2023-05-24T05:06:04;12.70;;;3.72;;
44774;SDS011;31340;51.402;0.016;2023-05-24T05:08:31;10.38;;;3.28;;
44774;SDS011;31340;51.402;0.016;2023-05-24T05:10:59;13.20;;;3.78;;
44774;SDS011;31340;51.402;0.016;2023-05-24T05:13:27;15.80;;;4.45;;
44774;SDS011;31340;51.402;0.016;2023-05-24T05:15:54;18.58;;;5.22;;
44774;SDS011;31340;51.402;0.016;2023-05-24T05:18:22;17.48;;;5.32;;
44774;SDS011;31340;51.402;0.016;2023-05-24T05:20:49;14.57;;;4.68;;
44774;SDS011;31340;51.402;0.016;2023-05-24T05:23:17;13.90;;;4.95;;
44774;SDS011;31340;51.402;0.016;2023-05-24T05:25:45;14.52;;;5.03;;
44774;SDS011;31340;51.402;0.016;2023-05-24T05:28:12;17.73;;;5.57;;
44774;SDS011;31340;51.402;0.016;2023-05-24T05:30:40;19.27;;;5.60;;
44774;SDS011;31340;51.402;0.016;2023-05-24T05:33:08;21.70;;;5.85;;
44774;SDS011;31340;51.402;0.016;2023-05-24T05:35:36;15.38;;;5.68;;
44774;SDS011;31340;51.402;0.016;2023-05-24T05:38:03;12.70;;;5.45;;
44774;SDS011;31340;51.402;0.016;2023-05-24T05:40:31;21.48;;;5.88;;
44774;SDS011;31340;51.402;0.016;2023-05-24T05:42:59;17.05;;;5.80;;
44774;SDS011;31340;51.402;0.016;2023-05-24T05:45:26;20.00;;;5.47;;
44774;SDS011;31340;51.402;0.016;2023-05-24T05:47:54;15.38;;;5.70;;
44774;SDS011;31340;51.402;0.016;2023-05-24T05:50:22;16.05;;;5.45;;
44774;SDS011;31340;51.402;0.016;2023-05-24T05:52:49;20.08;;;5.97;;
44774;SDS011;31340;51.402;0.016;2023-05-24T05:55:17;18.40;;;5.68;;
44774;SDS011;31340;51.402;0.016;2023-05-24T05:57:45;18.15;;;5.93;;
44774;SDS011;31340;51.402;0.016;2023-05-24T06:00:12;18.23;;;5.57;;
44774;SDS011;31340;51.402;0.016;2023-05-24T06:02:40;24.17;;;6.65;;
44774;SDS011;31340;51.402;0.016;2023-05-24T06:05:08;17.90;;;6.60;;
44774;SDS011;31340;51.402;0.016;2023-05-24T06:07:35;20.05;;;7.00;;
44774;SDS011;31340;51.402;0.016;2023-05-24T06:10:04;22.42;;;6.75;;
44774;SDS011;31340;51.402;0.016;2023-05-24T06:12:32;25.95;;;6.82;;
44774;SDS011;31340;51.402;0.016;2023-05-24T06:15:00;19.50;;;6.95;;
44774;SDS011;31340;51.402;0.016;2023-05-24T06:17:28;20.70;;;6.40;;
44774;SDS011;31340;51.402;0.016;2023-05-24T06:19:56;26.58;;;7.20;;
44774;SDS011;31340;51.402;0.016;2023-05-24T06:22:23;21.40;;;6.57;;
44774;SDS011;31340;51.402;0.016;2023-05-24T06:24:51;22.77;;;7.45;;
44774;SDS011;31340;51.402;0.016;2023-05-24T06:27:18;26.75;;;7.97;;
44774;SDS011;31340;51.402;0.016;2023-05-24T06:29:46;24.90;;;7.15;;
44774;SDS011;31340;51.402;0.016;2023-05-24T06:32:13;22.25;;;6.45;;
44774;SDS011;31340;51.402;0.016;2023-05-24T06:34:41;22.02;;;6.70;;
44774;SDS011;31340;51.402;0.016;2023-05-24T06:37:09;22.55;;;7.90;;
44774;SDS011;31340;51.402;0.016;2023-05-24T06:39:36;20.35;;;6.90;;
44774;SDS011;31340;51.402;0.016;2023-05-24T06:42:04;23.23;;;6.65;;
44774;SDS011;31340;51.402;0.016;2023-05-24T06:44:35;21.45;;;7.07;;
44774;SDS011;31340;51.402;0.016;2023-05-24T06:47:03;21.38;;;7.00;;
44774;SDS011;31340;51.402;0.016;2023-05-24T06:49:32;24.40;;;6.95;;
44774;SDS011;31340;51.402;0.016;2023-05-24T06:51:59;20.15;;;6.95;;
44774;SDS011;31340;51.402;0.016;2023-05-24T06:54:27;22.98;;;7.70;;
44774;SDS011;31340;51.402;0.016;2023-05-24T06:56:55;22.30;;;7.60;;
44774;SDS011;31340;51.402;0.016;2023-05-24T06:59:22;23.02;;;7.95;;
44774;SDS011;31340;51.402;0.016;2023-05-24T07:01:50;24.77;;;7.78;;
44774;SDS011;31340;51.402;0.016;2023-05-24T07:04:25;21.77;;;7.32;;
44774;SDS011;31340;51.402;0.016;2023-05-24T07:06:54;25.98;;;7.35;;
44774;SDS011;31340;51.402;0.016;2023-05-24T07:09:23;26.30;;;7.72;;
44774;SDS011;31340;51.402;0.016;2023-05-24T07:11:50;24.63;;;7.05;;
44774;SDS011;31340;51.402;0.016;2023-05-24T07:14:18;22.60;;;6.95;;
44774;SDS011;31340;51.402;0.016;2023-05-24T07:16:45;23.00;;;6.38;;
44774;SDS011;31340;51.402;0.016;2023-05-24T07:19:14;30.10;;;7.35;;
44774;SDS011;31340;51.402;0.016;2023-05-24T07:21:42;26.02;;;7.10;;
44774;SDS011;31340;51.402;0.016;2023-05-24T07:24:09;20.88;;;7.25;;
44774;SDS011;31340;51.402;0.016;2023-05-24T07:26:40;21.17;;;6.55;;
44774;SDS011;31340;51.402;0.016;2023-05-24T07:29:08;22.80;;;6.85;;
44774;SDS011;31340;51.402;0.016;2023-05-24T07:31:35;24.08;;;6.85;;
44774;SDS011;31340;51.402;0.016;2023-05-24T07:34:02;23.63;;;7.75;;
44774;SDS011;31340;51.402;0.016;2023-05-24T07:36:30;21.70;;;6.60;;
44774;SDS011;31340;51.402;0.016;2023-05-24T07:39:01;23.33;;;6.85;;
44774;SDS011;31340;51.402;0.016;2023-05-24T07:41:30;24.73;;;7.60;;
44774;SDS011;31340;51.402;0.016;2023-05-24T07:43:59;22.23;;;6.70;;
44774;SDS011;31340;51.402;0.016;2023-05-24T07:46:26;25.13;;;6.72;;
44774;SDS011;31340;51.402;0.016;2023-05-24T07:48:54;25.85;;;6.93;;
44774;SDS011;31340;51.402;0.016;2023-05-24T07:51:22;23.83;;;6.07;;
44774;SDS011;31340;51.402;0.016;2023-05-24T07:53:49;27.55;;;6.75;;
44774;SDS011;31340;51.402;0.016;2023-05-24T07:56:17;22.63;;;6.65;;
44774;SDS011;31340;51.402;0.016;2023-05-24T07:58:44;26.40;;;8.00;;
44774;SDS011;31340;51.402;0.016;2023-05-24T08:01:12;22.33;;;6.30;;
44774;SDS011;31340;51.402;0.016;2023-05-24T08:03:40;26.83;;;7.00;;
44774;SDS011;31340;51.402;0.016;2023-05-24T08:06:08;22.63;;;6.28;;
44774;SDS011;31340;51.402;0.016;2023-05-24T08:08:35;22.33;;;6.20;;
44774;SDS011;31340;51.402;0.016;2023-05-24T08:11:04;19.95;;;6.82;;
44774;SDS011;31340;51.402;0.016;2023-05-24T08:13:33;20.45;;;6.43;;
44774;SDS011;31340;51.402;0.016;2023-05-24T08:16:01;25.35;;;7.07;;
44774;SDS011;31340;51.402;0.016;2023-05-24T08:18:29;19.88;;;6.88;;
44774;SDS011;31340;51.402;0.016;2023-05-24T08:20:56;18.98;;;5.70;;
44774;SDS011;31340;51.402;0.016;2023-05-24T08:23:24;22.70;;;6.80;;
44774;SDS011;31340;51.402;0.016;2023-05-24T08:25:52;26.70;;;7.25;;
44774;SDS011;31340;51.402;0.016;2023-05-24T08:28:20;16.27;;;5.25;;
44774;SDS011;31340;51.402;0.016;2023-05-24T08:30:48;20.42;;;5.55;;
44774;SDS011;31340;51.402;0.016;2023-05-24T08:33:15;27.92;;;5.53;;
44774;SDS011;31340;51.402;0.016;2023-05-24T08:35:43;21.55;;;6.97;;
44774;SDS011;31340;51.402;0.016;2023-05-24T08:38:10;20.60;;;6.15;;
44774;SDS011;31340;51.402;0.016;2023-05-24T08:40:38;16.75;;;5.40;;
44774;SDS011;31340;51.402;0.016;2023-05-24T08:43:05;23.90;;;6.47;;
44774;SDS011;31340;51.402;0.016;2023-05-24T08:45:38;19.73;;;5.72;;
44774;SDS011;31340;51.402;0.016;2023-05-24T08:48:06;24.90;;;5.93;;
44774;SDS011;31340;51.402;0.016;2023-05-24T08:50:35;22.33;;;5.40;;
44774;SDS011;31340;51.402;0.016;2023-05-24T08:53:02;18.85;;;5.10;;
44774;SDS011;31340;51.402;0.016;2023-05-24T08:55:32;23.08;;;5.60;;
44774;SDS011;31340;51.402;0.016;2023-05-24T08:58:02;22.95;;;5.90;;
44774;SDS011;31340;51.402;0.016;2023-05-24T09:00:30;24.02;;;6.22;;
44774;SDS011;31340;51.402;0.016;2023-05-24T09:02:58;17.85;;;5.13;;
44774;SDS011;31340;51.402;0.016;2023-05-24T09:05:27;13.60;;;4.65;;
44774;SDS011;31340;51.402;0.016;2023-05-24T09:07:56;18.10;;;5.88;;
44774;SDS011;31340;51.402;0.016;2023-05-24T09:10:27;22.05;;;6.10;;
44774;SDS011;31340;51.402;0.016;2023-05-24T09:13:16;17.23;;;5.38;;
44774;SDS011;31340;51.402;0.016;2023-05-24T09:15:45;16.33;;;5.70;;
44774;SDS011;31340;51.402;0.016;2023-05-24T09:18:13;23.25;;;5.55;;
44774;SDS011;31340;51.402;0.016;2023-05-24T09:20:40;25.65;;;6.85;;
44774;SDS011;31340;51.402;0.016;2023-05-24T09:23:08;21.50;;;5.75;;
44774;SDS011;31340;51.402;0.016;2023-05-24T09:25:42;20.77;;;5.25;;
44774;SDS011;31340;51.402;0.016;2023-05-24T09:28:12;18.65;;;4.97;;
44774;SDS011;31340;51.402;0.016;2023-05-24T09:30:45;17.92;;;4.68;;
44774;SDS011;31340;51.402;0.016;2023-05-24T09:33:31;22.95;;;6.32;;
44774;SDS011;31340;51.402;0.016;2023-05-24T09:36:02;16.27;;;5.68;;
44774;SDS011;31340;51.402;0.016;2023-05-24T09:38:30;18.13;;;5.07;;
44774;SDS011;31340;51.402;0.016;2023-05-24T09:41:02;21.25;;;5.88;;
44774;SDS011;31340;51.402;0.016;2023-05-24T09:43:32;14.50;;;5.30;;
44774;SDS011;31340;51.402;0.016;2023-05-24T09:46:02;15.13;;;5.20;;
44774;SDS011;31340;51.402;0.016;2023-05-24T09:48:30;18.80;;;5.13;;
44774;SDS011;31340;51.402;0.016;2023-05-24T09:51:02;16.92;;;5.80;;
44774;SDS011;31340;51.402;0.016;2023-05-24T09:53:32;16.75;;;5.57;;
44774;SDS011;31340;51.402;0.016;2023-05-24T09:56:04;15.20;;;4.90;;
44774;SDS011;31340;51.402;0.016;2023-05-24T09:58:34;16.60;;;4.88;;
44774;SDS011;31340;51.402;0.016;2023-05-24T10:01:05;14.63;;;4.25;;
44774;SDS011;31340;51.402;0.016;2023-05-24T10:03:35;16.52;;;5.13;;
44774;SDS011;31340;51.402;0.016;2023-05-24T10:06:04;16.00;;;5.72;;
44774;SDS011;31340;51.402;0.016;2023-05-24T10:08:33;16.35;;;5.63;;
44774;SDS011;31340;51.402;0.016;2023-05-24T10:11:02;13.20;;;4.88;;
44774;SDS011;31340;51.402;0.016;2023-05-24T10:13:31;15.77;;;5.45;;
44774;SDS011;31340;51.402;0.016;2023-05-24T10:18:29;20.17;;;5.70;;
44774;SDS011;31340;51.402;0.016;2023-05-24T10:20:58;14.07;;;5.15;;
44774;SDS011;31340;51.402;0.016;2023-05-24T10:23:30;14.73;;;5.15;;
44774;SDS011;31340;51.402;0.016;2023-05-24T10:26:03;13.52;;;4.70;;
44774;SDS011;31340;51.402;0.016;2023-05-24T10:31:14;14.27;;;5.38;;
44774;SDS011;31340;51.402;0.016;2023-05-24T10:33:46;17.67;;;4.95;;
44774;SDS011;31340;51.402;0.016;2023-05-24T10:36:17;17.55;;;5.15;;
44774;SDS011;31340;51.402;0.016;2023-05-24T10:38:45;10.73;;;4.20;;
44774;SDS011;31340;51.402;0.016;2023-05-24T10:41:13;14.63;;;5.18;;
44774;SDS011;31340;51.402;0.016;2023-05-24T10:43:41;15.32;;;5.57;;
44774;SDS011;31340;51.402;0.016;2023-05-24T10:46:27;15.57;;;5.38;;
44774;SDS011;31340;51.402;0.016;2023-05-24T10:48:59;18.70;;;5.35;;
44774;SDS011;31340;51.402;0.016;2023-05-24T10:54:12;17.17;;;5.20;;
44774;SDS011;31340;51.402;0.016;2023-05-24T10:56:52;17.23;;;5.03;;
44774;SDS011;31340;51.402;0.016;2023-05-24T10:59:21;12.60;;;4.82;;
44774;SDS011;31340;51.402;0.016;2023-05-24T11:01:53;17.52;;;5.35;;
44774;SDS011;31340;51.402;0.016;2023-05-24T11:04:23;10.43;;;4.15;;
44774;SDS011;31340;51.402;0.016;2023-05-24T11:06:55;12.70;;;4.57;;
44774;SDS011;31340;51.402;0.016;2023-05-24T11:09:24;14.98;;;4.72;;
44774;SDS011;31340;51.402;0.016;2023-05-24T11:11:54;14.10;;;4.85;;
44774;SDS011;31340;51.402;0.016;2023-05-24T11:14:24;15.35;;;5.07;;
44774;SDS011;31340;51.402;0.016;2023-05-24T11:16:55;13.57;;;5.07;;
44774;SDS011;31340;51.402;0.016;2023-05-24T11:19:27;12.40;;;4.43;;
44774;SDS011;31340;51.402;0.016;2023-05-24T11:21:58;13.35;;;4.72;;
44774;SDS011;31340;51.402;0.016;2023-05-24T11:24:28;17.93;;;4.33;;
44774;SDS011;31340;51.402;0.016;2023-05-24T11:26:58;11.27;;;4.57;;
44774;SDS011;31340;51.402;0.016;2023-05-24T11:29:27;13.73;;;3.92;;
44774;SDS011;31340;51.402;0.016;2023-05-24T11:31:58;13.57;;;4.45;;
44774;SDS011;31340;51.402;0.016;2023-05-24T11:34:33;12.68;;;4.65;;
44774;SDS011;31340;51.402;0.016;2023-05-24T11:37:01;12.77;;;5.13;;
44774;SDS011;31340;51.402;0.016;2023-05-24T11:39:32;14.13;;;4.97;;
44774;SDS011;31340;51.402;0.016;2023-05-24T11:42:04;11.38;;;4.53;;
44774;SDS011;31340;51.402;0.016;2023-05-24T11:44:33;12.32;;;4.63;;
44774;SDS011;31340;51.402;0.016;2023-05-24T11:47:05;13.20;;;4.82;;
44774;SDS011;31340;51.402;0.016;2023-05-24T11:49:33;11.07;;;4.88;;
44774;SDS011;31340;51.402;0.016;2023-05-24T11:52:01;16.77;;;4.88;;
44774;SDS011;31340;51.402;0.016;2023-05-24T11:54:29;11.82;;;5.13;;
44774;SDS011;31340;51.402;0.016;2023-05-24T11:57:01;13.85;;;4.28;;
44774;SDS011;31340;51.402;0.016;2023-05-24T11:59:29;13.25;;;4.18;;
44774;SDS011;31340;51.402;0.016;2023-05-24T12:04:28;9.63;;;4.65;;
44774;SDS011;31340;51.402;0.016;2023-05-24T12:06:57;12.50;;;4.05;;
44774;SDS011;31340;51.402;0.016;2023-05-24T12:09:25;10.45;;;3.63;;
44774;SDS011;31340;51.402;0.016;2023-05-24T12:11:53;12.65;;;4.25;;
44774;SDS011;31340;51.402;0.016;2023-05-24T12:14:22;8.93;;;3.55;;
44774;SDS011;31340;51.402;0.016;2023-05-24T12:16:54;11.82;;;4.63;;
44774;SDS011;31340;51.402;0.016;2023-05-24T12:19:24;9.35;;;4.60;;
44774;SDS011;31340;51.402;0.016;2023-05-24T12:22:00;11.30;;;4.28;;
44774;SDS011;31340;51.402;0.016;2023-05-24T12:24:31;11.15;;;4.38;;
44774;SDS011;31340;51.402;0.016;2023-05-24T12:27:00;7.80;;;4.05;;
44774;SDS011;31340;51.402;0.016;2023-05-24T12:29:36;10.70;;;5.00;;
44774;SDS011;31340;51.402;0.016;2023-05-24T12:32:06;10.15;;;4.20;;
44774;SDS011;31340;51.402;0.016;2023-05-24T12:34:40;15.15;;;4.35;;
44774;SDS011;31340;51.402;0.016;2023-05-24T12:37:13;16.30;;;4.50;;
44774;SDS011;31340;51.402;0.016;2023-05-24T12:39:41;12.00;;;4.72;;
44774;SDS011;31340;51.402;0.016;2023-05-24T12:42:10;8.15;;;4.00;;
44774;SDS011;31340;51.402;0.016;2023-05-24T12:47:08;9.32;;;3.83;;
44774;SDS011;31340;51.402;0.016;2023-05-24T12:49:36;12.48;;;4.40;;
44774;SDS011;31340;51.402;0.016;2023-05-24T12:52:04;12.48;;;3.88;;
44774;SDS011;31340;51.402;0.016;2023-05-24T12:54:32;14.68;;;4.60;;
44774;SDS011;31340;51.402;0.016;2023-05-24T12:57:00;12.68;;;4.85;;
44774;SDS011;31340;51.402;0.016;2023-05-24T12:59:31;14.60;;;4.35;;
44774;SDS011;31340;51.402;0.016;2023-05-24T13:01:59;10.07;;;4.53;;
44774;SDS011;31340;51.402;0.016;2023-05-24T13:04:27;10.80;;;4.38;;
44774;SDS011;31340;51.402;0.016;2023-05-24T13:06:57;8.57;;;3.65;;
44774;SDS011;31340;51.402;0.016;2023-05-24T13:09:26;14.80;;;4.30;;
44774;SDS011;31340;51.402;0.016;2023-05-24T13:11:53;12.43;;;4.32;;
44774;SDS011;31340;51.402;0.016;2023-05-24T13:14:21;10.82;;;3.78;;
44774;SDS011;31340;51.402;0.016;2023-05-24T13:16:48;9.95;;;4.65;;
44774;SDS011;31340;51.402;0.016;2023-05-24T13:19:16;10.82;;;4.80;;
44774;SDS011;31340;51.402;0.016;2023-05-24T13:21:44;10.05;;;3.83;;
44774;SDS011;31340;51.402;0.016;2023-05-24T13:24:13;8.43;;;4.03;;
44774;SDS011;31340;51.402;0.016;2023-05-24T13:26:43;9.48;;;4.22;;
44774;SDS011;31340;51.402;0.016;2023-05-24T13:29:11;11.00;;;4.15;;
44774;SDS011;31340;51.402;0.016;2023-05-24T13:31:42;8.05;;;3.72;;
44774;SDS011;31340;51.402;0.016;2023-05-24T13:34:11;9.75;;;4.18;;
44774;SDS011;31340;51.402;0.016;2023-05-24T13:36:38;12.05;;;4.57;;
44774;SDS011;31340;51.402;0.016;2023-05-24T13:39:06;11.88;;;4.70;;
44774;SDS011;31340;51.402;0.016;2023-05-24T13:41:38;10.70;;;4.32;;
44774;SDS011;31340;51.402;0.016;2023-05-24T13:44:07;9.82;;;4.25;;
44774;SDS011;31340;51.402;0.016;2023-05-24T13:46:36;10.52;;;4.18;;
44774;SDS011;31340;51.402;0.016;2023-05-24T13:49:05;11.68;;;3.95;;
44774;SDS011;31340;51.402;0.016;2023-05-24T13:51:35;8.60;;;4.53;;
44774;SDS011;31340;51.402;0.016;2023-05-24T13:54:04;11.95;;;4.68;;
44774;SDS011;31340;51.402;0.016;2023-05-24T13:56:33;8.50;;;4.23;;
44774;SDS011;31340;51.402;0.016;2023-05-24T13:59:02;9.57;;;3.92;;
44774;SDS011;31340;51.402;0.016;2023-05-24T14:01:34;9.03;;;4.07;;
44774;SDS011;31340;51.402;0.016;2023-05-24T14:04:03;10.00;;;3.90;;
44774;SDS011;31340;51.402;0.016;2023-05-24T14:06:32;9.35;;;4.25;;
44774;SDS011;31340;51.402;0.016;2023-05-24T14:09:00;9.75;;;4.22;;
44774;SDS011;31340;51.402;0.016;2023-05-24T14:11:28;9.85;;;4.10;;
44774;SDS011;31340;51.402;0.016;2023-05-24T14:13:57;10.27;;;4.43;;
44774;SDS011;31340;51.402;0.016;2023-05-24T14:16:28;6.90;;;3.60;;
44774;SDS011;31340;51.402;0.016;2023-05-24T14:18:56;11.35;;;4.25;;
44774;SDS011;31340;51.402;0.016;2023-05-24T14:21:24;8.07;;;3.97;;
44774;SDS011;31340;51.402;0.016;2023-05-24T14:23:53;8.52;;;3.95;;
44774;SDS011;31340;51.402;0.016;2023-05-24T14:26:21;10.95;;;3.90;;
44774;SDS011;31340;51.402;0.016;2023-05-24T14:28:49;8.15;;;4.20;;
44774;SDS011;31340;51.402;0.016;2023-05-24T14:31:21;10.43;;;4.50;;
44774;SDS011;31340;51.402;0.016;2023-05-24T14:33:49;10.18;;;4.35;;
44774;SDS011;31340;51.402;0.016;2023-05-24T14:36:17;12.68;;;4.85;;
44774;SDS011;31340;51.402;0.016;2023-05-24T14:38:44;9.98;;;4.57;;
44774;SDS011;31340;51.402;0.016;2023-05-24T14:41:12;10.27;;;4.63;;
44774;SDS011;31340;51.402;0.016;2023-05-24T14:43:41;8.75;;;4.20;;
44774;SDS011;31340;51.402;0.016;2023-05-24T14:46:09;10.88;;;4.10;;
44774;SDS011;31340;51.402;0.016;2023-05-24T14:48:37;9.90;;;4.40;;
44774;SDS011;31340;51.402;0.016;2023-05-24T14:51:07;11.73;;;4.65;;
44774;SDS011;31340;51.402;0.016;2023-05-24T14:53:35;12.82;;;4.72;;
44774;SDS011;31340;51.402;0.016;2023-05-24T14:56:02;11.18;;;5.13;;
44774;SDS011;31340;51.402;0.016;2023-05-24T14:58:33;11.25;;;5.03;;
44774;SDS011;31340;51.402;0.016;2023-05-24T15:01:01;9.65;;;4.13;;
44774;SDS011;31340;51.402;0.016;2023-05-24T15:03:28;8.75;;;4.60;;
44774;SDS011;31340;51.402;0.016;2023-05-24T15:05:56;8.25;;;4.45;;
44774;SDS011;31340;51.402;0.016;2023-05-24T15:08:24;11.63;;;4.97;;
44774;SDS011;31340;51.402;0.016;2023-05-24T15:10:52;11.98;;;4.78;;
44774;SDS011;31340;51.402;0.016;2023-05-24T15:13:21;11.65;;;4.88;;
44774;SDS011;31340;51.402;0.016;2023-05-24T15:15:50;12.23;;;5.70;;